Time;durP1;ratioP1;P1;durP2;ratioP2;P2;SDS_P1;SDS_P2;PMS_P1;PMS_P2;Temp;Humidity;BMP_temperature;BMP_pressure;BME280_temperature;BME280_humidity;BME280_pressure;Samples;Min_cycle;Max_cycle;Signal;HPM_P1;HPM_P2
2021/12/18 00:01:25;;;;;;;10.05;4.43;;;0.20;99.90;;;;;;4960221;29;20047;-81
2021/12/18 00:03:51;;;;;;;10.13;5.50;;;0.20;99.90;;;;;;4946890;28;20035;-85
2021/12/18 00:06:17;;;;;;;8.45;4.13;;;0.30;99.90;;;;;;4944052;29;20016;-83
2021/12/18 00:08:43;;;;;;;;;;;0.30;99.90;;;;;;4961527;29;20088;-83
2021/12/18 00:11:10;;;;;;;17.00;8.15;;;0.30;99.90;;;;;;4960286;29;19906;-82
2021/12/18 00:13:36;;;;;;;12.07;5.82;;;0.40;99.90;;;;;;4961755;29;20008;-85
2021/12/18 00:16:02;;;;;;;;;;;0.30;99.90;;;;;;4963830;28;20034;-84
2021/12/18 00:18:30;;;;;;;13.68;5.53;;;0.40;99.90;;;;;;4947054;28;19933;-83
2021/12/18 00:20:57;;;;;;;15.60;5.72;;;0.50;99.90;;;;;;4961465;28;20031;-83
2021/12/18 00:23:23;;;;;;;15.32;7.55;;;0.50;99.90;;;;;;4944456;29;20015;-82
2021/12/18 00:25:49;;;;;;;12.10;6.40;;;0.50;99.90;;;;;;4943232;29;20016;-82
2021/12/18 00:28:15;;;;;;;;;;;0.40;99.90;;;;;;4960474;29;20035;-81
2021/12/18 00:30:41;;;;;;;17.65;6.95;;;0.20;99.90;;;;;;4944074;29;19898;-83
2021/12/18 00:33:07;;;;;;;;;;;0.20;99.90;;;;;;4945154;29;20050;-82
2021/12/18 00:35:34;;;;;;;15.88;8.43;;;0.20;99.90;;;;;;4959602;29;19895;-81
2021/12/18 00:38:02;;;;;;;24.42;10.23;;;0.10;99.90;;;;;;4942862;29;20039;-82
2021/12/18 00:40:31;;;;;;;16.75;7.05;;;0.10;99.90;;;;;;4944477;29;20107;-82
2021/12/18 00:43:13;;;;;;;9.55;5.18;;;0.30;99.90;;;;;;4960783;29;20019;-82
2021/12/18 00:45:39;;;;;;;15.00;6.88;;;0.40;99.90;;;;;;4959481;29;20027;-81
2021/12/18 00:48:04;;;;;;;;;;;0.30;99.90;;;;;;4943489;29;20047;-81
2021/12/18 00:50:30;;;;;;;15.52;8.20;;;0.40;99.90;;;;;;4959981;29;19942;-80
2021/12/18 00:52:56;;;;;;;;;;;0.30;99.90;;;;;;4958732;29;20043;-83
2021/12/18 00:55:22;;;;;;;17.92;9.13;;;0.30;99.90;;;;;;4942634;29;19925;-82
2021/12/18 00:57:50;;;;;;;17.13;7.93;;;0.20;99.90;;;;;;4958820;29;20043;-82
2021/12/18 01:00:22;;;;;;;29.20;11.40;;;0.10;99.90;;;;;;4959334;29;20020;-82
2021/12/18 01:02:52;;;;;;;28.83;11.88;;;0.20;99.90;;;;;;4959260;29;20027;-82
2021/12/18 01:05:18;;;;;;;23.67;10.15;;;0.20;99.90;;;;;;4942928;29;20119;-83
2021/12/18 01:07:44;;;;;;;20.45;9.80;;;0.30;99.90;;;;;;4942504;29;20032;-83
2021/12/18 01:13:20;;;;;;;44.10;18.33;;;0.20;99.90;;;;;;4899195;29;20033;-82
2021/12/18 01:15:51;;;;;;;35.88;15.38;;;0.10;99.90;;;;;;4900432;29;20025;-81
2021/12/18 01:23:45;;;;;;;25.95;11.15;;;0.10;99.90;;;;;;4962285;28;20079;-83
2021/12/18 01:26:13;;;;;;;;;;;0.00;99.90;;;;;;4946552;29;20016;-82
2021/12/18 01:28:39;;;;;;;;;;;0.00;99.90;;;;;;4962519;28;19957;-85
2021/12/18 01:31:05;;;;;;;37.95;16.10;;;-0.20;99.90;;;;;;4962490;28;19895;-85
2021/12/18 01:33:32;;;;;;;39.85;15.07;;;-0.10;99.90;;;;;;4962362;28;20043;-83
2021/12/18 01:36:00;;;;;;;44.63;16.58;;;-0.30;99.90;;;;;;4962297;28;20022;-82
2021/12/18 01:38:28;;;;;;;37.55;18.08;;;-0.20;99.90;;;;;;4962203;28;20004;-83
2021/12/18 01:40:55;;;;;;;41.20;17.52;;;-0.40;99.90;;;;;;4945161;29;20035;-82
2021/12/18 01:53:45;;;;;;;32.47;13.93;;;-0.60;99.90;;;;;;4962067;28;20020;-83
2021/12/18 01:56:11;;;;;;;33.58;13.27;;;-0.70;99.90;;;;;;4961802;28;20038;-81
2021/12/18 01:58:37;;;;;;;34.80;13.75;;;-0.60;99.90;;;;;;4961606;28;20020;-83
2021/12/18 02:01:04;;;;;;;30.48;12.45;;;-0.70;99.90;;;;;;4945145;29;20036;-82
2021/12/18 02:03:31;;;;;;;18.52;8.77;;;-0.90;99.90;;;;;;4944972;29;20079;-82
2021/12/18 02:05:58;;;;;;;40.22;16.85;;;-0.90;99.90;;;;;;4945022;29;20039;-83
2021/12/18 02:08:26;;;;;;;87.97;29.08;;;-0.90;99.90;;;;;;4945168;28;20039;-82
2021/12/18 02:10:59;;;;;;;33.55;14.02;;;-1.10;99.90;;;;;;4961307;29;20040;-81
2021/12/18 02:13:40;;;;;;;29.08;12.27;;;-1.20;99.90;;;;;;4961681;28;20039;-83
2021/12/18 02:21:35;;;;;;;50.63;19.50;;;-1.30;99.90;;;;;;4960904;29;20043;-83
2021/12/18 02:24:01;;;;;;;;;;;-1.20;99.90;;;;;;4944231;29;20027;-81
2021/12/18 02:34:53;;;;;;;16.00;6.82;;;-0.80;99.90;;;;;;4959053;28;20032;-80
2021/12/18 02:37:28;;;;;;;15.43;7.15;;;-0.60;99.90;;;;;;4961506;28;20063;-82
2021/12/18 02:40:50;;;;;;;14.68;6.80;;;-0.70;99.90;;;;;;4961069;29;20036;-80
2021/12/18 02:42:49;;;;;;;13.07;6.18;;;-0.60;99.90;;;;;;4961141;28;20039;-81
2021/12/18 02:45:15;;;;;;;14.48;6.43;;;-0.60;99.90;;;;;;4960738;29;20039;-79
2021/12/18 02:47:41;;;;;;;;;;;-0.70;99.90;;;;;;4961323;28;20019;-80
2021/12/18 02:50:07;;;;;;;15.15;6.28;;;-0.70;99.90;;;;;;4945193;29;19926;-81
2021/12/18 02:52:33;;;;;;;10.20;5.03;;;-0.80;99.90;;;;;;4961357;28;20020;-82
2021/12/18 02:54:58;;;;;;;;;;;-0.60;99.90;;;;;;4945349;29;20012;-81
2021/12/18 02:57:27;;;;;;;12.48;4.75;;;-0.50;99.90;;;;;;4960358;29;19902;-81
2021/12/18 02:59:56;;;;;;;11.85;5.13;;;-0.50;99.90;;;;;;4944844;28;20004;-78
2021/12/18 03:02:23;;;;;;;11.85;5.55;;;-0.40;99.90;;;;;;4961465;28;20015;-79
2021/12/18 03:04:54;;;;;;;11.60;4.55;;;-0.50;99.90;;;;;;4961445;28;20012;-81
2021/12/18 03:07:23;;;;;;;11.73;5.15;;;-0.40;99.90;;;;;;4945318;29;20054;-82
2021/12/18 03:21:35;;;;;;;10.10;5.07;;;-0.90;99.90;;;;;;4964923;28;20027;-80
2021/12/18 03:23:40;;;;;;;11.15;5.10;;;-1.00;99.90;;;;;;4964808;28;20008;-79
2021/12/18 03:28:42;;;;;;;11.15;4.68;;;-1.00;99.90;;;;;;5742394;23;20051;-83
2021/12/18 03:31:08;;;;;;;8.75;4.70;;;-1.00;99.90;;;;;;4981703;28;20027;-83
2021/12/18 03:33:34;;;;;;;;;;;-1.00;99.90;;;;;;4982194;28;20503;-83
2021/12/18 03:36:00;;;;;;;15.35;6.75;;;-1.10;99.90;;;;;;4965074;29;19903;-83
2021/12/18 03:38:26;;;;;;;16.98;7.68;;;-1.20;99.90;;;;;;4982506;28;20051;-82
2021/12/18 03:40:52;;;;;;;;;;;-1.00;99.90;;;;;;4982633;29;20031;-83
2021/12/18 03:43:18;;;;;;;14.48;5.63;;;-1.00;99.90;;;;;;4982395;28;19910;-82
2021/12/18 03:45:43;;;;;;;;;;;-0.80;99.90;;;;;;4966054;29;20031;-83
2021/12/18 03:48:09;;;;;;;13.70;5.43;;;-0.80;99.90;;;;;;4982706;28;19914;-83
2021/12/18 03:50:35;;;;;;;;;;;-0.80;99.90;;;;;;4966006;29;20015;-82
2021/12/18 03:53:01;;;;;;;9.93;4.85;;;-0.80;99.90;;;;;;4981134;28;19890;-82
2021/12/18 03:55:27;;;;;;;;;;;-0.70;99.90;;;;;;4965286;29;20046;-83
2021/12/18 03:57:53;;;;;;;15.38;5.07;;;-0.60;99.90;;;;;;4981057;28;19919;-82
2021/12/18 04:00:19;;;;;;;12.27;5.65;;;-0.80;99.90;;;;;;4980815;29;20023;-83
2021/12/18 04:02:45;;;;;;;;;;;-0.90;99.90;;;;;;4981525;29;20032;-83
2021/12/18 04:05:12;;;;;;;11.27;6.10;;;-1.00;99.90;;;;;;4964005;29;19913;-80
2021/12/18 04:07:43;;;;;;;14.13;6.70;;;-1.00;99.90;;;;;;4964627;29;20028;-82
2021/12/18 04:10:11;;;;;;;15.25;7.03;;;-1.10;99.90;;;;;;4964508;29;20026;-83
2021/12/18 04:12:38;;;;;;;13.90;6.38;;;-1.10;99.90;;;;;;4980804;28;20014;-83
2021/12/18 04:15:05;;;;;;;21.83;7.75;;;-1.20;99.90;;;;;;4981538;29;20004;-83
2021/12/18 04:17:31;;;;;;;13.77;7.22;;;-1.10;99.90;;;;;;4964838;29;20087;-83
2021/12/18 04:19:56;;;;;;;;;;;-1.00;99.90;;;;;;4980348;28;20027;-83
2021/12/18 04:22:22;;;;;;;28.55;11.45;;;-1.00;99.90;;;;;;4981438;28;19933;-83
2021/12/18 04:24:48;;;;;;;;;;;-1.20;99.90;;;;;;4969345;28;20019;-83
2021/12/18 04:27:14;;;;;;;24.92;11.20;;;-1.20;99.90;;;;;;4945625;29;19909;-82
2021/12/18 04:29:40;;;;;;;25.60;12.00;;;-1.20;99.90;;;;;;4945480;29;20460;-82
2021/12/18 04:32:06;;;;;;;;;;;-1.10;99.90;;;;;;4945951;29;20038;-82
2021/12/18 04:34:31;;;;;;;30.55;12.38;;;-1.10;99.90;;;;;;4962048;28;19914;-84
2021/12/18 04:36:57;;;;;;;;;;;-1.10;99.90;;;;;;4961817;29;20047;-84
2021/12/18 04:39:23;;;;;;;29.27;10.50;;;-1.20;99.90;;;;;;4944982;29;19895;-82
2021/12/18 04:41:52;;;;;;;;;;;-1.30;99.90;;;;;;4961301;29;20056;-83
2021/12/18 04:44:18;;;;;;;22.75;11.32;;;-1.30;99.90;;;;;;4945029;29;19901;-82
2021/12/18 04:46:44;;;;;;;25.88;12.10;;;-1.30;99.90;;;;;;4961294;29;20023;-84
2021/12/18 04:49:10;;;;;;;24.55;11.80;;;-1.40;99.90;;;;;;4960729;28;20023;-82
2021/12/18 04:51:36;;;;;;;;;;;-1.50;99.90;;;;;;4944797;29;20027;-82
2021/12/18 04:54:02;;;;;;;25.90;12.13;;;-1.70;99.90;;;;;;4944611;29;19894;-81
2021/12/18 04:56:28;;;;;;;25.15;12.10;;;-1.70;99.90;;;;;;4944618;29;20048;-83
2021/12/18 04:58:54;;;;;;;;;;;-1.80;99.90;;;;;;4961390;28;20087;-82
2021/12/18 05:01:20;;;;;;;26.98;11.82;;;-1.80;99.90;;;;;;4960579;29;19931;-81
2021/12/18 05:03:47;;;;;;;;;;;-1.80;99.90;;;;;;4961250;29;20051;-82
2021/12/18 05:06:13;;;;;;;22.67;9.95;;;-2.00;99.90;;;;;;4961091;29;19910;-81
2021/12/18 05:08:39;;;;;;;20.50;9.95;;;-1.80;99.90;;;;;;4944753;29;20008;-83
2021/12/18 05:11:05;;;;;;;16.73;8.65;;;-1.80;99.90;;;;;;4960763;29;20020;-80
2021/12/18 05:13:31;;;;;;;25.65;12.80;;;-1.90;99.90;;;;;;4944441;29;20095;-82
2021/12/18 05:15:57;;;;;;;;;;;-1.90;99.90;;;;;;4961187;29;20012;-83
2021/12/18 05:18:23;;;;;;;22.65;10.90;;;-1.90;99.90;;;;;;4961020;29;19911;-81
2021/12/18 05:20:49;;;;;;;;;;;-1.90;99.90;;;;;;4961336;29;20039;-82
2021/12/18 05:23:15;;;;;;;38.58;16.02;;;-2.00;99.90;;;;;;4943953;29;19902;-82
2021/12/18 05:25:40;;;;;;;;;;;-2.00;99.90;;;;;;4960960;29;20008;-84
2021/12/18 05:28:06;;;;;;;20.60;10.25;;;-2.10;99.90;;;;;;4959445;29;19923;-81
2021/12/18 05:30:32;;;;;;;;;;;-2.10;99.90;;;;;;4960180;28;20020;-81
2021/12/18 05:32:58;;;;;;;24.33;11.38;;;-2.00;99.90;;;;;;4960792;29;19891;-82
2021/12/18 05:35:24;;;;;;;;;;;-1.90;99.90;;;;;;4960701;29;20492;-82
2021/12/18 05:37:52;;;;;;;13.95;7.10;;;-1.90;99.90;;;;;;4943775;29;19907;-82
2021/12/18 05:40:22;;;;;;;24.83;11.15;;;-1.70;99.90;;;;;;4960178;29;20027;-82
2021/12/18 05:42:50;;;;;;;19.75;8.85;;;-1.60;99.90;;;;;;4961262;29;20012;-83
2021/12/18 05:45:16;;;;;;;19.23;8.88;;;-1.60;99.90;;;;;;4944381;29;20028;-83
2021/12/18 05:47:46;;;;;;;16.48;8.00;;;-1.60;99.90;;;;;;4960362;28;20016;-83
2021/12/18 05:50:14;;;;;;;14.13;7.40;;;-1.60;99.90;;;;;;4959942;29;20043;-82
2021/12/18 05:52:41;;;;;;;16.10;5.88;;;-1.60;99.90;;;;;;4960099;29;20027;-82
2021/12/18 05:55:08;;;;;;;12.68;6.07;;;-1.50;99.90;;;;;;4960543;29;20012;-81
2021/12/18 05:57:34;;;;;;;11.80;6.05;;;-1.40;99.90;;;;;;4943290;29;20030;-83
2021/12/18 06:00:01;;;;;;;11.57;5.90;;;-1.20;99.90;;;;;;4959174;28;20032;-82
2021/12/18 06:02:27;;;;;;;14.93;6.15;;;-1.20;99.90;;;;;;4943626;29;20043;-82
2021/12/18 06:04:55;;;;;;;;;;;-1.20;99.90;;;;;;4960220;28;20039;-83
2021/12/18 06:07:38;;;;;;;12.95;5.18;;;-1.20;99.90;;;;;;4959826;29;19891;-80
2021/12/18 06:10:04;;;;;;;17.55;7.32;;;-1.30;99.90;;;;;;4960177;29;20000;-82
2021/12/18 06:12:30;;;;;;;21.15;8.85;;;-1.40;99.90;;;;;;4943034;29;20024;-81
2021/12/18 06:14:56;;;;;;;;;;;-1.40;99.90;;;;;;4945189;29;20043;-82
2021/12/18 06:17:21;;;;;;;23.80;9.35;;;-1.50;99.90;;;;;;4961040;28;19903;-82
2021/12/18 06:19:47;;;;;;;;;;;-1.50;99.90;;;;;;4961777;28;20088;-83
2021/12/18 06:22:13;;;;;;;14.35;7.13;;;-1.40;99.90;;;;;;4961387;28;19898;-83
2021/12/18 06:27:04;;;;;;;18.95;7.20;;;-1.50;99.90;;;;;;5725741;23;19942;-82
2021/12/18 06:29:33;;;;;;;18.02;7.28;;;-1.60;99.90;;;;;;4961562;29;20035;-83
2021/12/18 06:31:59;;;;;;;18.67;8.55;;;-1.60;99.90;;;;;;4978654;29;20007;-83
2021/12/18 06:34:25;;;;;;;21.63;10.45;;;-1.70;99.90;;;;;;4978119;29;20011;-82
2021/12/18 06:36:51;;;;;;;;;;;-1.70;99.90;;;;;;4979044;28;20030;-80
2021/12/18 06:39:16;;;;;;;25.25;11.18;;;-1.60;99.90;;;;;;4979138;28;19959;-82
2021/12/18 06:41:42;;;;;;;;;;;-1.70;99.90;;;;;;4977661;28;20023;-83
2021/12/18 06:44:08;;;;;;;23.95;12.07;;;-1.70;99.90;;;;;;4960973;29;19925;-81
2021/12/18 06:46:34;;;;;;;;;;;-1.70;99.90;;;;;;4978912;28;20019;-83
2021/12/18 06:49:00;;;;;;;69.63;23.63;;;-1.60;99.90;;;;;;4961864;29;19914;-82
2021/12/18 06:51:25;;;;;;;;;;;-1.60;99.90;;;;;;4961318;29;20078;-81
2021/12/18 06:53:51;;;;;;;73.43;26.88;;;-1.50;99.90;;;;;;4978297;29;19906;-82
2021/12/18 06:56:17;;;;;;;;;;;-1.40;99.90;;;;;;4978366;29;20035;-82
2021/12/18 06:58:43;;;;;;;25.45;7.80;;;-1.40;99.90;;;;;;4961429;29;19913;-82
2021/12/18 07:01:09;;;;;;;;;;;-1.40;99.90;;;;;;4961329;29;20098;-80
2021/12/18 07:03:37;;;;;;;19.30;7.47;;;-1.30;99.90;;;;;;4961502;28;19918;-81
2021/12/18 07:06:03;;;;;;;10.63;5.20;;;-1.30;99.90;;;;;;4979115;28;20027;-81
2021/12/18 07:08:29;;;;;;;;;;;-1.20;99.90;;;;;;4979737;28;20011;-79
2021/12/18 07:10:55;;;;;;;8.43;3.67;;;-1.10;99.90;;;;;;4979823;28;19917;-82
2021/12/18 07:13:24;;;;;;;;;;;-0.90;99.90;;;;;;4963062;29;20070;-83
2021/12/18 07:15:51;;;;;;;13.10;5.60;;;-0.70;99.90;;;;;;4962898;29;19894;-81
2021/12/18 07:18:17;;;;;;;8.23;4.20;;;-0.50;99.90;;;;;;4962862;29;20027;-81
2021/12/18 07:20:43;;;;;;;;;;;-0.20;99.90;;;;;;4979927;28;20022;-82
2021/12/18 07:23:09;;;;;;;10.00;5.30;;;0.20;99.90;;;;;;4963328;28;19895;-80
2021/12/18 07:25:34;;;;;;;;;;;0.40;99.90;;;;;;4962640;29;20039;-83
2021/12/18 07:28:00;;;;;;;52.08;19.38;;;0.70;99.90;;;;;;4959958;28;19915;-83
2021/12/18 07:30:26;;;;;;;;;;;0.70;99.90;;;;;;4944237;28;20039;-82
2021/12/18 07:32:52;;;;;;;29.75;13.15;;;0.90;99.90;;;;;;4960100;28;19895;-81
2021/12/18 07:35:17;;;;;;;;;;;0.90;99.90;;;;;;4940467;29;20044;-82
2021/12/18 07:37:43;;;;;;;150.85;48.33;;;1.00;99.90;;;;;;4936450;29;19938;-83
2021/12/18 07:40:09;;;;;;;;;;;1.20;99.90;;;;;;4937524;29;20034;-82
2021/12/18 07:42:35;;;;;;;41.65;14.27;;;1.20;99.90;;;;;;4936090;29;19911;-81
2021/12/18 07:45:01;;;;;;;;;;;1.60;99.90;;;;;;4937369;29;20322;-83
2021/12/18 07:47:27;;;;;;;39.95;11.90;;;1.90;99.90;;;;;;4937381;29;19906;-83
2021/12/18 07:49:53;;;;;;;;;;;2.30;99.90;;;;;;4956473;29;20016;-83
2021/12/18 07:52:19;;;;;;;24.08;8.60;;;2.50;99.90;;;;;;4955568;28;19895;-78
2021/12/18 07:54:45;;;;;;;21.17;6.78;;;2.90;99.90;;;;;;4956671;29;20027;-82
2021/12/18 07:57:10;;;;;;;;;;;3.00;99.90;;;;;;4943456;29;20046;-84
2021/12/18 07:59:36;;;;;;;17.05;7.38;;;3.40;99.90;;;;;;4946328;28;19937;-81
2021/12/18 08:02:04;;;;;;;;;;;3.70;99.90;;;;;;4946101;29;20492;-84
2021/12/18 08:04:34;;;;;;;61.90;14.60;;;3.90;99.90;;;;;;4946561;28;19988;-83
2021/12/18 08:07:01;;;;;;;18.98;6.85;;;4.10;99.90;;;;;;4963751;28;20075;-84
2021/12/18 08:09:27;;;;;;;20.92;8.10;;;4.50;99.90;;;;;;4963564;28;20030;-84
2021/12/18 08:11:53;;;;;;;16.38;7.47;;;4.90;99.90;;;;;;4963765;28;20016;-83
2021/12/18 08:14:18;;;;;;;;;;;5.30;99.90;;;;;;4947709;29;20027;-81
2021/12/18 08:16:48;;;;;;;13.38;6.65;;;5.50;99.30;;;;;;4947261;29;19954;-85
2021/12/18 08:19:14;;;;;;;17.70;7.10;;;5.90;99.80;;;;;;4947432;29;20027;-84
2021/12/18 08:21:40;;;;;;;24.48;9.65;;;6.10;98.80;;;;;;4947381;29;20044;-80
2021/12/18 15:10:23;;;;;;;14.88;8.55;;;4.50;99.90;;;;;;5368318;23;20039;-78
2021/12/18 15:12:51;;;;;;;21.50;9.70;;;4.50;99.90;;;;;;4968069;28;20026;-76
2021/12/18 15:15:17;;;;;;;18.83;10.20;;;4.50;99.90;;;;;;4967952;28;20058;-81
2021/12/18 15:17:43;;;;;;;;;;;4.40;99.90;;;;;;4967808;28;20027;-77
2021/12/18 15:20:09;;;;;;;23.40;9.80;;;4.30;99.90;;;;;;4984364;28;19894;-79
2021/12/18 17:36:12;;;;;;;77.57;40.33;;;3.40;99.90;;;;;;5619951;23;20035;-82
2021/12/18 17:38:37;;;;;;;;;;;3.40;99.90;;;;;;4965127;28;20039;-82
2021/12/18 17:41:03;;;;;;;30.08;14.73;;;3.40;99.90;;;;;;4981474;28;19918;-81
2021/12/18 17:43:29;;;;;;;;;;;3.50;99.90;;;;;;4965366;28;20531;-83
2021/12/18 17:45:55;;;;;;;32.17;15.68;;;3.50;99.90;;;;;;4981205;28;19930;-81
2021/12/18 17:48:23;;;;;;;49.47;25.15;;;3.40;99.90;;;;;;4964253;29;20011;-84
2021/12/18 17:50:50;;;;;;;29.98;15.32;;;3.50;99.90;;;;;;4981267;28;20035;-84
2021/12/18 17:53:16;;;;;;;18.63;9.75;;;3.50;99.90;;;;;;4964304;28;20035;-82
2021/12/18 17:55:42;;;;;;;;;;;3.50;99.90;;;;;;4981937;28;20034;-81
2021/12/18 17:58:07;;;;;;;21.92;10.98;;;3.60;99.90;;;;;;4981184;28;19942;-84
2021/12/18 18:00:33;;;;;;;42.08;22.42;;;3.50;99.90;;;;;;4981531;28;20024;-80
2021/12/18 18:03:00;;;;;;;;;;;3.50;99.90;;;;;;4965239;28;20043;-79
2021/12/18 18:05:27;;;;;;;73.47;32.10;;;3.40;99.90;;;;;;4964693;28;19895;-83
2021/12/18 18:07:53;;;;;;;45.22;22.48;;;3.50;99.90;;;;;;4981310;28;20286;-83
2021/12/18 18:10:22;;;;;;;;;;;3.50;99.90;;;;;;4980183;28;20031;-84
2021/12/18 18:12:48;;;;;;;59.08;29.63;;;3.50;99.90;;;;;;4980352;28;19894;-84
2021/12/18 18:15:15;;;;;;;59.20;29.70;;;3.50;99.90;;;;;;4980625;28;20031;-83
2021/12/18 18:17:46;;;;;;;87.10;43.65;;;3.50;99.90;;;;;;4980772;28;20100;-81
2021/12/18 18:33:09;;;;;;;38.05;19.70;;;3.40;99.90;;;;;;5955913;23;20053;-80
2021/12/18 18:35:35;;;;;;;19.13;8.80;;;3.40;99.90;;;;;;4980131;28;20075;-78
2021/12/18 18:38:02;;;;;;;;;;;3.40;99.90;;;;;;4980541;28;20028;-77
2021/12/18 18:40:30;;;;;;;12.75;7.13;;;3.40;99.90;;;;;;4964417;28;19895;-81
2021/12/18 18:42:56;;;;;;;30.80;16.10;;;3.30;99.90;;;;;;4964434;28;20011;-79
2021/12/18 18:45:26;;;;;;;;;;;3.30;99.90;;;;;;4981345;28;20015;-77
2021/12/18 18:47:57;;;;;;;34.83;20.33;;;3.20;99.90;;;;;;4964452;28;19921;-77
2021/12/18 18:50:31;;;;;;;40.42;20.80;;;3.20;99.90;;;;;;4980884;28;20019;-77
2021/12/18 18:53:01;;;;;;;42.13;23.73;;;3.10;99.90;;;;;;4980900;28;20015;-79
2021/12/18 18:55:27;;;;;;;49.30;25.73;;;3.00;99.90;;;;;;4980703;28;20012;-79
2021/12/18 19:35:28;;;;;;;51.65;28.10;;;3.20;99.90;;;;;;5194105;27;20174;-78
2021/12/18 19:38:00;;;;;;;95.13;41.78;;;3.30;99.90;;;;;;5174543;27;20050;-83
2021/12/18 19:40:27;;;;;;;107.22;47.88;;;3.30;99.90;;;;;;5178804;27;20022;-85
2021/12/18 19:42:56;;;;;;;105.68;46.83;;;3.50;99.90;;;;;;5178648;27;20021;-84
2021/12/18 19:45:22;;;;;;;102.53;43.67;;;3.50;99.90;;;;;;5198226;27;20031;-85
2021/12/18 19:47:48;;;;;;;;;;;3.30;99.90;;;;;;5179956;27;20051;-87
2021/12/18 19:50:20;;;;;;;103.15;44.72;;;3.30;99.90;;;;;;5179927;27;19891;-86
2021/12/18 19:52:51;;;;;;;103.65;47.10;;;3.30;99.90;;;;;;5178749;27;20014;-87
2021/12/18 19:55:19;;;;;;;101.30;44.97;;;3.20;99.90;;;;;;5198251;27;20034;-87
2021/12/18 19:57:46;;;;;;;112.53;51.72;;;3.20;99.90;;;;;;5197996;27;20079;-86
2021/12/18 20:00:15;;;;;;;100.60;42.95;;;3.20;99.90;;;;;;5180685;27;20023;-85
2021/12/18 20:05:18;;;;;;;60.15;30.38;;;3.40;99.90;;;;;;5198241;27;20023;-86
2021/12/18 20:07:45;;;;;;;66.07;34.20;;;3.20;99.90;;;;;;5179788;27;20018;-85
2021/12/18 20:10:13;;;;;;;107.82;50.45;;;3.20;99.90;;;;;;5178041;27;20015;-85
2021/12/18 20:12:39;;;;;;;47.13;24.60;;;3.20;99.90;;;;;;5197712;27;20007;-87
2021/12/18 20:15:06;;;;;;;;;;;3.20;99.90;;;;;;5198142;27;20048;-85
2021/12/18 20:17:32;;;;;;;12.63;6.70;;;3.30;99.90;;;;;;5196217;27;19906;-85
2021/12/18 20:19:59;;;;;;;18.02;5.78;;;3.40;99.90;;;;;;5191676;27;20034;-85
2021/12/18 20:22:25;;;;;;;9.70;3.65;;;3.30;99.90;;;;;;5197356;27;20022;-85
2021/12/18 20:24:50;;;;;;;;;;;3.30;99.90;;;;;;5197135;27;20002;-86
2021/12/18 20:27:16;;;;;;;14.02;3.75;;;3.40;99.90;;;;;;5197793;27;19913;-86
2021/12/18 20:29:43;;;;;;;12.35;4.25;;;3.30;99.90;;;;;;5196430;27;20030;-83
2021/12/18 20:32:10;;;;;;;12.10;5.50;;;3.40;99.90;;;;;;5196601;27;20010;-85
2021/12/18 20:34:37;;;;;;;22.10;10.32;;;3.30;99.90;;;;;;5196348;27;20058;-83
2021/12/18 20:37:07;;;;;;;151.82;62.22;;;3.30;99.90;;;;;;5194576;27;20096;-86
2021/12/18 20:39:37;;;;;;;188.93;76.78;;;3.20;99.90;;;;;;5195556;27;19999;-86
2021/12/18 20:42:08;;;;;;;271.33;106.00;;;3.10;99.90;;;;;;5197388;27;20027;-85
2021/12/18 20:44:37;;;;;;;279.33;102.88;;;3.10;99.90;;;;;;5195998;27;20033;-85
2021/12/18 20:47:05;;;;;;;279.63;98.35;;;3.00;99.90;;;;;;5182903;27;20011;-86
2021/12/18 20:49:31;;;;;;;287.42;100.10;;;3.00;99.90;;;;;;5181740;27;20027;-82
2021/12/18 20:51:57;;;;;;;;;;;3.10;99.90;;;;;;5183276;27;20083;-85
2021/12/18 20:54:22;;;;;;;248.98;81.95;;;2.90;99.90;;;;;;5180901;27;19891;-85
2021/12/18 20:56:49;;;;;;;235.82;79.43;;;2.90;99.90;;;;;;5179090;27;20018;-84
2021/12/18 20:59:15;;;;;;;149.65;53.80;;;2.90;99.90;;;;;;5180290;27;20037;-84
2021/12/18 21:01:46;;;;;;;58.05;25.95;;;2.90;99.90;;;;;;5183051;27;20030;-84
2021/12/18 21:04:16;;;;;;;89.70;40.65;;;3.00;99.90;;;;;;5181118;27;20072;-85
2021/12/18 21:06:43;;;;;;;76.60;36.53;;;3.10;99.90;;;;;;5181307;27;20042;-85
2021/12/18 21:09:13;;;;;;;73.10;41.67;;;3.00;99.90;;;;;;5178735;27;20029;-85
2021/12/18 21:11:39;;;;;;;46.88;26.40;;;3.10;99.90;;;;;;5178723;27;20029;-84
2021/12/18 21:14:08;;;;;;;49.55;23.17;;;3.00;99.90;;;;;;5181035;27;20040;-85
2021/12/18 21:16:36;;;;;;;49.80;23.63;;;3.00;99.90;;;;;;5183023;27;20011;-85
2021/12/18 21:19:07;;;;;;;47.45;22.00;;;3.00;99.90;;;;;;5183165;27;20015;-81
2021/12/18 21:21:35;;;;;;;53.53;25.00;;;2.90;99.90;;;;;;5183206;27;20017;-85
2021/12/18 21:24:05;;;;;;;71.88;32.63;;;2.90;99.90;;;;;;5183608;27;20021;-84
2021/12/18 21:26:32;;;;;;;81.22;37.15;;;2.80;99.90;;;;;;5182793;27;20026;-85
2021/12/18 21:28:58;;;;;;;68.40;31.50;;;2.90;99.90;;;;;;5182997;27;20030;-83
2021/12/18 21:31:24;;;;;;;;;;;3.00;99.90;;;;;;5183388;27;20078;-85
2021/12/18 21:33:53;;;;;;;70.10;28.50;;;2.70;99.90;;;;;;5182722;27;19903;-85
2021/12/18 21:36:36;;;;;;;67.03;31.08;;;2.80;99.90;;;;;;5182497;27;19999;-85
2021/12/18 21:39:09;;;;;;;82.22;37.42;;;2.80;99.90;;;;;;5181349;27;20037;-82
2021/12/18 21:41:37;;;;;;;77.22;34.90;;;2.70;99.90;;;;;;5182405;27;20014;-81
2021/12/18 21:44:04;;;;;;;80.80;37.47;;;2.60;99.90;;;;;;5182495;27;20014;-82
2021/12/18 21:46:30;;;;;;;102.60;42.22;;;2.60;99.90;;;;;;5183017;27;20018;-84
2021/12/18 21:48:55;;;;;;;;;;;2.60;99.90;;;;;;5183124;27;20010;-84
2021/12/18 21:51:21;;;;;;;55.03;23.25;;;2.60;99.90;;;;;;5183383;27;19910;-82
2021/12/18 21:53:47;;;;;;;;;;;2.60;99.90;;;;;;5182938;27;20030;-85
2021/12/18 21:56:13;;;;;;;36.20;15.02;;;2.50;99.90;;;;;;5182052;27;19892;-84
2021/12/18 21:58:38;;;;;;;;;;;2.60;99.90;;;;;;5182692;27;20038;-81
2021/12/18 22:01:05;;;;;;;16.80;6.88;;;2.60;99.90;;;;;;5182720;27;19891;-82
2021/12/18 22:03:31;;;;;;;25.80;11.52;;;2.50;99.90;;;;;;5182593;27;20026;-83
2021/12/18 22:05:57;;;;;;;20.55;7.75;;;2.40;99.90;;;;;;5182066;27;20003;-80
2021/12/18 22:08:23;;;;;;;;;;;2.60;99.90;;;;;;5182972;27;20041;-83
2021/12/18 22:10:51;;;;;;;20.92;9.40;;;2.50;99.90;;;;;;5181866;27;20346;-84
2021/12/18 22:13:18;;;;;;;17.10;8.50;;;2.50;99.90;;;;;;5182320;27;20025;-84
2021/12/18 22:15:46;;;;;;;29.90;11.38;;;2.40;99.90;;;;;;5177598;27;20018;-83
2021/12/18 22:18:15;;;;;;;22.48;10.68;;;2.30;99.90;;;;;;5181585;27;20074;-84
2021/12/18 22:20:44;;;;;;;25.42;10.85;;;2.30;99.90;;;;;;5181927;27;20027;-84
2021/12/18 22:23:14;;;;;;;26.60;12.13;;;2.20;99.90;;;;;;5182619;27;20062;-83
2021/12/18 22:25:41;;;;;;;22.63;10.63;;;2.20;99.90;;;;;;5182052;27;20007;-80
2021/12/18 22:28:09;;;;;;;32.13;10.98;;;2.20;99.90;;;;;;5182440;27;20033;-80
2021/12/18 22:30:40;;;;;;;25.23;11.80;;;2.20;99.90;;;;;;5181791;27;20017;-84
2021/12/18 22:33:07;;;;;;;23.92;11.07;;;2.20;99.90;;;;;;5181924;27;20018;-81
2021/12/18 22:35:33;;;;;;;23.45;11.48;;;2.10;99.90;;;;;;5181861;27;20018;-83
2021/12/18 22:37:59;;;;;;;23.75;10.00;;;2.10;99.90;;;;;;5181944;27;20035;-81
2021/12/18 22:40:25;;;;;;;26.27;11.68;;;2.10;99.90;;;;;;5181630;27;20022;-78
2021/12/18 22:42:52;;;;;;;;;;;2.00;99.90;;;;;;5182807;27;20015;-83
2021/12/18 22:45:18;;;;;;;33.97;13.65;;;1.90;99.90;;;;;;5181828;27;19898;-83
2021/12/18 22:47:49;;;;;;;;;;;1.90;99.90;;;;;;5182530;27;20034;-83
2021/12/18 22:50:16;;;;;;;61.85;28.05;;;1.90;99.90;;;;;;5181751;27;19922;-81
2021/12/18 22:52:42;;;;;;;75.13;30.10;;;1.90;99.90;;;;;;5181373;27;20068;-82
2021/12/18 22:55:08;;;;;;;;;;;1.80;99.90;;;;;;5181924;27;20023;-82
2021/12/18 22:57:33;;;;;;;60.88;26.60;;;1.70;99.90;;;;;;5182086;27;19930;-80
2021/12/18 23:00:25;;;;;;;;;;;1.60;99.90;;;;;;5181916;27;20011;-78
2021/12/18 23:03:00;;;;;;;70.57;32.33;;;1.80;99.90;;;;;;5181851;27;19891;-83
2021/12/18 23:05:27;;;;;;;53.53;24.88;;;1.80;99.90;;;;;;5181445;27;20007;-84
2021/12/18 23:07:54;;;;;;;61.92;28.98;;;1.80;99.90;;;;;;5181631;27;20084;-84
2021/12/18 23:10:21;;;;;;;44.22;22.85;;;1.80;99.90;;;;;;5181266;27;20057;-83
2021/12/18 23:13:04;;;;;;;30.52;14.77;;;1.90;99.90;;;;;;5180785;27;20014;-82
2021/12/18 23:15:53;;;;;;;60.03;30.73;;;1.80;99.90;;;;;;5181239;27;20102;-80
2021/12/18 23:18:25;;;;;;;51.78;29.98;;;1.80;99.90;;;;;;5181389;27;20007;-79
2021/12/18 23:58:30;;;;;;;16.95;7.47;;;1.80;99.90;;;;;;5440501;22;20032;-83
